sensor_id;sensor_type;location;lat;lon;timestamp;P1;durP1;ratioP1;P2;durP2;ratioP2
75993;SDS011;64680;53.800;9.988;2023-07-28T00:00:05;8.20;;;5.45;;
75993;SDS011;64680;53.800;9.988;2023-07-28T00:02:31;6.60;;;5.25;;
75993;SDS011;64680;53.800;9.988;2023-07-28T00:04:57;6.82;;;5.35;;
75993;SDS011;64680;53.800;9.988;2023-07-28T00:07:23;8.07;;;6.13;;
75993;SDS011;64680;53.800;9.988;2023-07-28T00:09:48;6.68;;;5.40;;
75993;SDS011;64680;53.800;9.988;2023-07-28T00:12:14;7.30;;;5.57;;
75993;SDS011;64680;53.800;9.988;2023-07-28T00:14:39;7.40;;;5.93;;
75993;SDS011;64680;53.800;9.988;2023-07-28T00:17:05;7.88;;;5.90;;
75993;SDS011;64680;53.800;9.988;2023-07-28T00:19:30;8.70;;;6.35;;
75993;SDS011;64680;53.800;9.988;2023-07-28T00:21:56;7.80;;;5.78;;
75993;SDS011;64680;53.800;9.988;2023-07-28T00:24:22;8.32;;;6.53;;
75993;SDS011;64680;53.800;9.988;2023-07-28T00:26:47;9.02;;;6.65;;
75993;SDS011;64680;53.800;9.988;2023-07-28T00:29:13;10.35;;;7.35;;
75993;SDS011;64680;53.800;9.988;2023-07-28T00:31:39;6.90;;;5.55;;
75993;SDS011;64680;53.800;9.988;2023-07-28T00:34:04;8.70;;;6.30;;
75993;SDS011;64680;53.800;9.988;2023-07-28T00:36:30;8.18;;;5.68;;
75993;SDS011;64680;53.800;9.988;2023-07-28T00:38:56;8.00;;;6.40;;
75993;SDS011;64680;53.800;9.988;2023-07-28T00:41:22;6.90;;;5.32;;
75993;SDS011;64680;53.800;9.988;2023-07-28T00:43:48;9.10;;;5.93;;
75993;SDS011;64680;53.800;9.988;2023-07-28T00:46:13;9.07;;;6.70;;
75993;SDS011;64680;53.800;9.988;2023-07-28T00:48:40;9.52;;;7.20;;
75993;SDS011;64680;53.800;9.988;2023-07-28T00:51:06;6.32;;;5.55;;
75993;SDS011;64680;53.800;9.988;2023-07-28T00:53:32;8.75;;;6.15;;
75993;SDS011;64680;53.800;9.988;2023-07-28T00:56:00;9.55;;;6.93;;
75993;SDS011;64680;53.800;9.988;2023-07-28T00:58:26;8.27;;;5.95;;
75993;SDS011;64680;53.800;9.988;2023-07-28T01:00:52;9.57;;;7.55;;
75993;SDS011;64680;53.800;9.988;2023-07-28T01:03:18;7.70;;;6.13;;
75993;SDS011;64680;53.800;9.988;2023-07-28T01:06:29;6.38;;;5.20;;
75993;SDS011;64680;53.800;9.988;2023-07-28T01:08:36;6.82;;;5.32;;
75993;SDS011;64680;53.800;9.988;2023-07-28T01:11:07;7.80;;;5.95;;
75993;SDS011;64680;53.800;9.988;2023-07-28T01:13:33;8.63;;;6.65;;
75993;SDS011;64680;53.800;9.988;2023-07-28T01:15:59;8.52;;;6.80;;
75993;SDS011;64680;53.800;9.988;2023-07-28T01:18:26;11.15;;;8.02;;
75993;SDS011;64680;53.800;9.988;2023-07-28T01:20:52;8.10;;;5.72;;
75993;SDS011;64680;53.800;9.988;2023-07-28T01:23:44;6.40;;;5.75;;
75993;SDS011;64680;53.800;9.988;2023-07-28T01:26:09;8.52;;;7.03;;
75993;SDS011;64680;53.800;9.988;2023-07-28T01:28:37;8.15;;;6.10;;
75993;SDS011;64680;53.800;9.988;2023-07-28T01:31:04;8.60;;;7.22;;
75993;SDS011;64680;53.800;9.988;2023-07-28T01:33:34;7.55;;;6.18;;
75993;SDS011;64680;53.800;9.988;2023-07-28T01:35:59;8.48;;;6.75;;
75993;SDS011;64680;53.800;9.988;2023-07-28T01:38:26;8.43;;;6.15;;
75993;SDS011;64680;53.800;9.988;2023-07-28T01:40:52;13.02;;;9.35;;
75993;SDS011;64680;53.800;9.988;2023-07-28T01:43:18;8.55;;;6.43;;
75993;SDS011;64680;53.800;9.988;2023-07-28T01:45:43;9.18;;;6.65;;
75993;SDS011;64680;53.800;9.988;2023-07-28T01:48:09;12.10;;;8.65;;
75993;SDS011;64680;53.800;9.988;2023-07-28T01:50:35;16.83;;;11.18;;
75993;SDS011;64680;53.800;9.988;2023-07-28T01:53:01;15.57;;;9.90;;
75993;SDS011;64680;53.800;9.988;2023-07-28T01:55:27;12.70;;;9.32;;
75993;SDS011;64680;53.800;9.988;2023-07-28T01:57:57;14.15;;;9.90;;
75993;SDS011;64680;53.800;9.988;2023-07-28T02:00:24;12.02;;;8.85;;
75993;SDS011;64680;53.800;9.988;2023-07-28T02:02:51;10.35;;;9.13;;
75993;SDS011;64680;53.800;9.988;2023-07-28T02:05:17;10.38;;;7.35;;
75993;SDS011;64680;53.800;9.988;2023-07-28T02:07:42;10.32;;;7.50;;
75993;SDS011;64680;53.800;9.988;2023-07-28T02:10:08;8.15;;;7.22;;
75993;SDS011;64680;53.800;9.988;2023-07-28T02:12:35;9.90;;;6.93;;
75993;SDS011;64680;53.800;9.988;2023-07-28T02:15:01;7.00;;;5.57;;
75993;SDS011;64680;53.800;9.988;2023-07-28T02:17:27;6.88;;;5.55;;
75993;SDS011;64680;53.800;9.988;2023-07-28T02:19:53;12.65;;;8.07;;
75993;SDS011;64680;53.800;9.988;2023-07-28T02:22:18;11.57;;;8.25;;
75993;SDS011;64680;53.800;9.988;2023-07-28T02:24:44;15.32;;;8.75;;
75993;SDS011;64680;53.800;9.988;2023-07-28T02:27:10;9.63;;;7.10;;
75993;SDS011;64680;53.800;9.988;2023-07-28T02:29:35;14.52;;;8.30;;
75993;SDS011;64680;53.800;9.988;2023-07-28T02:32:01;7.00;;;5.20;;
75993;SDS011;64680;53.800;9.988;2023-07-28T02:34:26;5.40;;;4.30;;
75993;SDS011;64680;53.800;9.988;2023-07-28T02:36:52;6.20;;;4.68;;
75993;SDS011;64680;53.800;9.988;2023-07-28T02:39:17;8.80;;;4.88;;
75993;SDS011;64680;53.800;9.988;2023-07-28T02:41:43;5.35;;;4.32;;
75993;SDS011;64680;53.800;9.988;2023-07-28T02:44:09;7.50;;;5.78;;
75993;SDS011;64680;53.800;9.988;2023-07-28T02:46:35;8.65;;;5.95;;
75993;SDS011;64680;53.800;9.988;2023-07-28T02:49:01;6.10;;;4.63;;
75993;SDS011;64680;53.800;9.988;2023-07-28T02:51:29;5.68;;;4.57;;
75993;SDS011;64680;53.800;9.988;2023-07-28T02:53:59;8.30;;;5.63;;
75993;SDS011;64680;53.800;9.988;2023-07-28T02:56:25;12.93;;;7.07;;
75993;SDS011;64680;53.800;9.988;2023-07-28T02:58:50;10.13;;;6.20;;
75993;SDS011;64680;53.800;9.988;2023-07-28T03:01:16;9.35;;;6.03;;
75993;SDS011;64680;53.800;9.988;2023-07-28T03:03:42;4.93;;;4.00;;
75993;SDS011;64680;53.800;9.988;2023-07-28T03:06:08;6.80;;;5.43;;
75993;SDS011;64680;53.800;9.988;2023-07-28T03:08:33;7.07;;;5.32;;
75993;SDS011;64680;53.800;9.988;2023-07-28T03:10:59;10.38;;;7.05;;
75993;SDS011;64680;53.800;9.988;2023-07-28T03:13:27;7.38;;;5.65;;
75993;SDS011;64680;53.800;9.988;2023-07-28T03:15:53;13.15;;;8.95;;
75993;SDS011;64680;53.800;9.988;2023-07-28T03:18:19;11.32;;;7.63;;
75993;SDS011;64680;53.800;9.988;2023-07-28T03:20:45;15.45;;;9.73;;
75993;SDS011;64680;53.800;9.988;2023-07-28T03:23:11;11.75;;;7.63;;
75993;SDS011;64680;53.800;9.988;2023-07-28T03:25:37;10.27;;;7.57;;
75993;SDS011;64680;53.800;9.988;2023-07-28T03:28:02;10.80;;;7.70;;
75993;SDS011;64680;53.800;9.988;2023-07-28T03:30:28;17.88;;;10.50;;
75993;SDS011;64680;53.800;9.988;2023-07-28T03:32:53;13.48;;;9.10;;
75993;SDS011;64680;53.800;9.988;2023-07-28T03:35:19;10.75;;;7.40;;
75993;SDS011;64680;53.800;9.988;2023-07-28T03:37:44;16.88;;;10.13;;
75993;SDS011;64680;53.800;9.988;2023-07-28T03:40:10;10.65;;;7.55;;
75993;SDS011;64680;53.800;9.988;2023-07-28T03:42:35;11.15;;;8.48;;
75993;SDS011;64680;53.800;9.988;2023-07-28T03:45:03;18.90;;;10.98;;
75993;SDS011;64680;53.800;9.988;2023-07-28T03:47:29;13.07;;;7.90;;
75993;SDS011;64680;53.800;9.988;2023-07-28T03:49:54;12.10;;;8.45;;
75993;SDS011;64680;53.800;9.988;2023-07-28T03:52:20;10.80;;;7.75;;
75993;SDS011;64680;53.800;9.988;2023-07-28T03:54:46;8.52;;;6.63;;
75993;SDS011;64680;53.800;9.988;2023-07-28T03:57:11;9.57;;;6.90;;
75993;SDS011;64680;53.800;9.988;2023-07-28T03:59:37;9.82;;;7.22;;
75993;SDS011;64680;53.800;9.988;2023-07-28T04:02:03;8.95;;;6.80;;
75993;SDS011;64680;53.800;9.988;2023-07-28T04:04:28;9.27;;;7.03;;
75993;SDS011;64680;53.800;9.988;2023-07-28T04:06:54;10.90;;;7.82;;
75993;SDS011;64680;53.800;9.988;2023-07-28T04:09:20;9.63;;;7.13;;
75993;SDS011;64680;53.800;9.988;2023-07-28T04:11:46;13.50;;;9.48;;
75993;SDS011;64680;53.800;9.988;2023-07-28T04:14:11;13.68;;;9.25;;
75993;SDS011;64680;53.800;9.988;2023-07-28T04:16:37;13.32;;;8.93;;
75993;SDS011;64680;53.800;9.988;2023-07-28T04:19:03;11.55;;;8.05;;
75993;SDS011;64680;53.800;9.988;2023-07-28T04:21:29;11.13;;;7.70;;
75993;SDS011;64680;53.800;9.988;2023-07-28T04:23:54;11.90;;;8.23;;
75993;SDS011;64680;53.800;9.988;2023-07-28T04:26:20;18.17;;;10.38;;
75993;SDS011;64680;53.800;9.988;2023-07-28T04:28:49;12.95;;;9.02;;
75993;SDS011;64680;53.800;9.988;2023-07-28T04:31:15;14.43;;;9.10;;
75993;SDS011;64680;53.800;9.988;2023-07-28T04:33:41;12.00;;;7.90;;
75993;SDS011;64680;53.800;9.988;2023-07-28T04:36:07;11.90;;;9.00;;
75993;SDS011;64680;53.800;9.988;2023-07-28T04:38:33;9.23;;;6.65;;
75993;SDS011;64680;53.800;9.988;2023-07-28T04:40:58;11.65;;;8.57;;
75993;SDS011;64680;53.800;9.988;2023-07-28T04:43:24;11.75;;;8.43;;
75993;SDS011;64680;53.800;9.988;2023-07-28T04:45:50;10.45;;;7.55;;
75993;SDS011;64680;53.800;9.988;2023-07-28T04:48:15;10.48;;;7.72;;
75993;SDS011;64680;53.800;9.988;2023-07-28T04:50:41;19.20;;;10.98;;
75993;SDS011;64680;53.800;9.988;2023-07-28T04:53:06;11.25;;;8.15;;
75993;SDS011;64680;53.800;9.988;2023-07-28T04:55:32;18.38;;;10.63;;
75993;SDS011;64680;53.800;9.988;2023-07-28T04:57:58;15.77;;;9.05;;
75993;SDS011;64680;53.800;9.988;2023-07-28T05:00:23;12.55;;;8.30;;
75993;SDS011;64680;53.800;9.988;2023-07-28T05:02:49;8.43;;;6.38;;
75993;SDS011;64680;53.800;9.988;2023-07-28T05:05:14;13.30;;;9.20;;
75993;SDS011;64680;53.800;9.988;2023-07-28T05:07:40;10.65;;;7.10;;
75993;SDS011;64680;53.800;9.988;2023-07-28T05:10:06;14.40;;;8.90;;
75993;SDS011;64680;53.800;9.988;2023-07-28T05:12:33;14.60;;;10.65;;
75993;SDS011;64680;53.800;9.988;2023-07-28T05:14:58;12.35;;;8.38;;
75993;SDS011;64680;53.800;9.988;2023-07-28T05:17:24;19.88;;;11.57;;
75993;SDS011;64680;53.800;9.988;2023-07-28T05:19:50;11.07;;;8.30;;
75993;SDS011;64680;53.800;9.988;2023-07-28T05:22:16;12.25;;;7.97;;
75993;SDS011;64680;53.800;9.988;2023-07-28T05:24:42;12.65;;;8.38;;
75993;SDS011;64680;53.800;9.988;2023-07-28T05:27:09;14.50;;;9.18;;
75993;SDS011;64680;53.800;9.988;2023-07-28T05:29:35;13.27;;;9.23;;
75993;SDS011;64680;53.800;9.988;2023-07-28T05:32:00;11.95;;;8.38;;
75993;SDS011;64680;53.800;9.988;2023-07-28T05:34:26;15.48;;;9.82;;
75993;SDS011;64680;53.800;9.988;2023-07-28T05:36:52;12.68;;;9.00;;
75993;SDS011;64680;53.800;9.988;2023-07-28T05:39:18;15.00;;;10.23;;
75993;SDS011;64680;53.800;9.988;2023-07-28T05:41:43;13.18;;;9.10;;
75993;SDS011;64680;53.800;9.988;2023-07-28T05:44:09;13.23;;;8.77;;
75993;SDS011;64680;53.800;9.988;2023-07-28T05:46:35;18.13;;;11.23;;
75993;SDS011;64680;53.800;9.988;2023-07-28T05:49:00;20.30;;;12.32;;
75993;SDS011;64680;53.800;9.988;2023-07-28T05:51:26;15.02;;;9.88;;
75993;SDS011;64680;53.800;9.988;2023-07-28T05:53:52;16.08;;;10.07;;
75993;SDS011;64680;53.800;9.988;2023-07-28T05:56:17;14.35;;;9.75;;
75993;SDS011;64680;53.800;9.988;2023-07-28T05:58:44;20.20;;;11.27;;
75993;SDS011;64680;53.800;9.988;2023-07-28T06:01:13;17.92;;;11.25;;
75993;SDS011;64680;53.800;9.988;2023-07-28T06:03:39;15.10;;;10.32;;
75993;SDS011;64680;53.800;9.988;2023-07-28T06:06:04;13.35;;;9.18;;
75993;SDS011;64680;53.800;9.988;2023-07-28T06:08:30;19.10;;;11.90;;
75993;SDS011;64680;53.800;9.988;2023-07-28T06:10:56;13.55;;;9.95;;
75993;SDS011;64680;53.800;9.988;2023-07-28T06:13:22;15.15;;;9.73;;
75993;SDS011;64680;53.800;9.988;2023-07-28T06:15:47;18.00;;;12.02;;
75993;SDS011;64680;53.800;9.988;2023-07-28T06:18:13;15.70;;;10.30;;
75993;SDS011;64680;53.800;9.988;2023-07-28T06:20:42;13.88;;;10.25;;
75993;SDS011;64680;53.800;9.988;2023-07-28T06:23:08;13.32;;;8.95;;
75993;SDS011;64680;53.800;9.988;2023-07-28T06:25:34;15.30;;;10.48;;
75993;SDS011;64680;53.800;9.988;2023-07-28T06:28:00;11.45;;;8.38;;
75993;SDS011;64680;53.800;9.988;2023-07-28T06:30:25;13.48;;;9.55;;
75993;SDS011;64680;53.800;9.988;2023-07-28T06:32:51;11.23;;;8.40;;
75993;SDS011;64680;53.800;9.988;2023-07-28T06:35:17;8.20;;;6.80;;
75993;SDS011;64680;53.800;9.988;2023-07-28T06:37:43;8.30;;;6.80;;
75993;SDS011;64680;53.800;9.988;2023-07-28T06:40:08;10.60;;;7.50;;
75993;SDS011;64680;53.800;9.988;2023-07-28T06:42:35;7.50;;;5.78;;
75993;SDS011;64680;53.800;9.988;2023-07-28T06:45:02;11.60;;;7.80;;
75993;SDS011;64680;53.800;9.988;2023-07-28T06:47:29;9.13;;;7.20;;
75993;SDS011;64680;53.800;9.988;2023-07-28T06:49:54;8.55;;;6.85;;
75993;SDS011;64680;53.800;9.988;2023-07-28T06:52:20;7.35;;;5.80;;
75993;SDS011;64680;53.800;9.988;2023-07-28T06:54:47;7.65;;;5.82;;
75993;SDS011;64680;53.800;9.988;2023-07-28T06:57:14;8.60;;;6.32;;
75993;SDS011;64680;53.800;9.988;2023-07-28T06:59:41;8.18;;;6.47;;
75993;SDS011;64680;53.800;9.988;2023-07-28T07:02:07;8.20;;;7.25;;
75993;SDS011;64680;53.800;9.988;2023-07-28T07:04:32;6.50;;;5.35;;
75993;SDS011;64680;53.800;9.988;2023-07-28T07:06:58;6.35;;;5.50;;
75993;SDS011;64680;53.800;9.988;2023-07-28T07:09:23;7.00;;;5.68;;
75993;SDS011;64680;53.800;9.988;2023-07-28T07:11:49;8.10;;;6.47;;
75993;SDS011;64680;53.800;9.988;2023-07-28T07:14:15;8.43;;;6.38;;
75993;SDS011;64680;53.800;9.988;2023-07-28T07:16:41;8.50;;;6.00;;
75993;SDS011;64680;53.800;9.988;2023-07-28T07:19:07;7.20;;;5.50;;
75993;SDS011;64680;53.800;9.988;2023-07-28T07:21:34;5.97;;;5.07;;
75993;SDS011;64680;53.800;9.988;2023-07-28T07:23:59;7.40;;;5.93;;
75993;SDS011;64680;53.800;9.988;2023-07-28T07:26:25;9.15;;;7.60;;
75993;SDS011;64680;53.800;9.988;2023-07-28T07:28:51;6.70;;;5.68;;
75993;SDS011;64680;53.800;9.988;2023-07-28T07:31:18;8.52;;;7.10;;
75993;SDS011;64680;53.800;9.988;2023-07-28T07:33:44;5.85;;;5.05;;
75993;SDS011;64680;53.800;9.988;2023-07-28T07:36:16;8.15;;;7.35;;
75993;SDS011;64680;53.800;9.988;2023-07-28T07:38:43;6.35;;;4.57;;
75993;SDS011;64680;53.800;9.988;2023-07-28T07:41:12;6.45;;;5.28;;
75993;SDS011;64680;53.800;9.988;2023-07-28T07:43:44;5.60;;;4.70;;
75993;SDS011;64680;53.800;9.988;2023-07-28T07:46:10;5.18;;;4.13;;
75993;SDS011;64680;53.800;9.988;2023-07-28T07:48:36;4.95;;;4.10;;
75993;SDS011;64680;53.800;9.988;2023-07-28T07:51:01;5.35;;;4.63;;
75993;SDS011;64680;53.800;9.988;2023-07-28T07:53:27;5.15;;;4.40;;
75993;SDS011;64680;53.800;9.988;2023-07-28T07:55:53;5.15;;;4.13;;
75993;SDS011;64680;53.800;9.988;2023-07-28T07:58:18;5.50;;;4.65;;
75993;SDS011;64680;53.800;9.988;2023-07-28T08:00:44;5.25;;;3.65;;
75993;SDS011;64680;53.800;9.988;2023-07-28T08:03:09;5.88;;;4.97;;
75993;SDS011;64680;53.800;9.988;2023-07-28T08:05:35;5.05;;;3.88;;
75993;SDS011;64680;53.800;9.988;2023-07-28T08:08:01;4.68;;;4.18;;
75993;SDS011;64680;53.800;9.988;2023-07-28T08:10:27;5.38;;;4.82;;
75993;SDS011;64680;53.800;9.988;2023-07-28T08:12:53;4.75;;;4.10;;
75993;SDS011;64680;53.800;9.988;2023-07-28T08:15:19;3.55;;;3.05;;
75993;SDS011;64680;53.800;9.988;2023-07-28T08:17:45;4.60;;;4.05;;
75993;SDS011;64680;53.800;9.988;2023-07-28T08:20:11;4.93;;;4.10;;
75993;SDS011;64680;53.800;9.988;2023-07-28T08:22:37;5.10;;;3.53;;
75993;SDS011;64680;53.800;9.988;2023-07-28T08:25:03;4.38;;;3.92;;
75993;SDS011;64680;53.800;9.988;2023-07-28T08:27:30;5.82;;;5.32;;
75993;SDS011;64680;53.800;9.988;2023-07-28T08:29:55;3.42;;;2.85;;
75993;SDS011;64680;53.800;9.988;2023-07-28T08:32:21;4.78;;;3.50;;
75993;SDS011;64680;53.800;9.988;2023-07-28T08:34:47;4.63;;;3.83;;
75993;SDS011;64680;53.800;9.988;2023-07-28T08:37:13;4.30;;;3.10;;
75993;SDS011;64680;53.800;9.988;2023-07-28T08:39:39;3.05;;;2.75;;
75993;SDS011;64680;53.800;9.988;2023-07-28T08:42:04;3.70;;;3.20;;
75993;SDS011;64680;53.800;9.988;2023-07-28T08:44:31;3.55;;;2.95;;
75993;SDS011;64680;53.800;9.988;2023-07-28T08:46:59;3.50;;;3.13;;
75993;SDS011;64680;53.800;9.988;2023-07-28T08:51:51;2.70;;;2.45;;
75993;SDS011;64680;53.800;9.988;2023-07-28T08:54:22;3.00;;;2.20;;
75993;SDS011;64680;53.800;9.988;2023-07-28T08:56:48;3.90;;;2.28;;
75993;SDS011;64680;53.800;9.988;2023-07-28T08:59:20;2.80;;;2.42;;
75993;SDS011;64680;53.800;9.988;2023-07-28T09:01:51;2.28;;;2.08;;
75993;SDS011;64680;53.800;9.988;2023-07-28T09:04:17;3.00;;;2.17;;
75993;SDS011;64680;53.800;9.988;2023-07-28T09:06:46;2.65;;;1.90;;
75993;SDS011;64680;53.800;9.988;2023-07-28T09:09:13;3.08;;;2.55;;
75993;SDS011;64680;53.800;9.988;2023-07-28T09:11:47;2.08;;;1.83;;
75993;SDS011;64680;53.800;9.988;2023-07-28T09:14:15;5.20;;;2.20;;
75993;SDS011;64680;53.800;9.988;2023-07-28T09:16:42;2.40;;;1.90;;
75993;SDS011;64680;53.800;9.988;2023-07-28T09:19:08;2.40;;;2.20;;
75993;SDS011;64680;53.800;9.988;2023-07-28T09:21:34;2.80;;;2.05;;
75993;SDS011;64680;53.800;9.988;2023-07-28T09:24:03;2.40;;;2.10;;
75993;SDS011;64680;53.800;9.988;2023-07-28T09:26:36;3.33;;;2.10;;
75993;SDS011;64680;53.800;9.988;2023-07-28T09:29:13;2.60;;;2.40;;
75993;SDS011;64680;53.800;9.988;2023-07-28T09:31:39;3.20;;;2.90;;
75993;SDS011;64680;53.800;9.988;2023-07-28T09:34:07;3.55;;;3.03;;
75993;SDS011;64680;53.800;9.988;2023-07-28T09:36:34;3.33;;;3.03;;
75993;SDS011;64680;53.800;9.988;2023-07-28T09:39:01;3.63;;;3.10;;
75993;SDS011;64680;53.800;9.988;2023-07-28T09:41:29;2.70;;;2.03;;
75993;SDS011;64680;53.800;9.988;2023-07-28T09:46:21;2.60;;;2.28;;
75993;SDS011;64680;53.800;9.988;2023-07-28T09:48:49;2.83;;;2.17;;
75993;SDS011;64680;53.800;9.988;2023-07-28T09:51:21;3.13;;;2.53;;
75993;SDS011;64680;53.800;9.988;2023-07-28T09:54:04;2.92;;;2.63;;
75993;SDS011;64680;53.800;9.988;2023-07-28T09:58:57;2.22;;;1.90;;
75993;SDS011;64680;53.800;9.988;2023-07-28T10:01:24;2.25;;;2.05;;
75993;SDS011;64680;53.800;9.988;2023-07-28T10:03:50;2.08;;;1.88;;
75993;SDS011;64680;53.800;9.988;2023-07-28T10:06:19;2.60;;;2.40;;
75993;SDS011;64680;53.800;9.988;2023-07-28T10:08:48;2.78;;;2.13;;
75993;SDS011;64680;53.800;9.988;2023-07-28T10:11:14;2.60;;;2.38;;
75993;SDS011;64680;53.800;9.988;2023-07-28T10:13:44;2.92;;;2.60;;
75993;SDS011;64680;53.800;9.988;2023-07-28T10:16:11;4.05;;;3.47;;
75993;SDS011;64680;53.800;9.988;2023-07-28T10:18:39;4.20;;;3.80;;
75993;SDS011;64680;53.800;9.988;2023-07-28T10:21:09;2.90;;;2.30;;
75993;SDS011;64680;53.800;9.988;2023-07-28T10:23:38;2.78;;;2.15;;
75993;SDS011;64680;53.800;9.988;2023-07-28T10:26:04;3.10;;;2.78;;
75993;SDS011;64680;53.800;9.988;2023-07-28T10:28:33;4.32;;;3.92;;
75993;SDS011;64680;53.800;9.988;2023-07-28T10:31:06;3.58;;;3.22;;
75993;SDS011;64680;53.800;9.988;2023-07-28T10:33:36;2.65;;;2.40;;
75993;SDS011;64680;53.800;9.988;2023-07-28T10:38:42;3.17;;;2.47;;
75993;SDS011;64680;53.800;9.988;2023-07-28T10:41:10;4.40;;;2.83;;
75993;SDS011;64680;53.800;9.988;2023-07-28T10:43:38;2.42;;;2.22;;
75993;SDS011;64680;53.800;9.988;2023-07-28T10:46:05;3.08;;;2.00;;
75993;SDS011;64680;53.800;9.988;2023-07-28T10:48:35;2.10;;;1.90;;
75993;SDS011;64680;53.800;9.988;2023-07-28T10:51:02;2.42;;;2.08;;
75993;SDS011;64680;53.800;9.988;2023-07-28T10:53:28;1.77;;;1.63;;
75993;SDS011;64680;53.800;9.988;2023-07-28T10:55:54;3.58;;;2.38;;
75993;SDS011;64680;53.800;9.988;2023-07-28T10:58:19;1.95;;;1.52;;
75993;SDS011;64680;53.800;9.988;2023-07-28T11:00:45;1.83;;;1.63;;
75993;SDS011;64680;53.800;9.988;2023-07-28T11:03:10;1.95;;;1.75;;
75993;SDS011;64680;53.800;9.988;2023-07-28T11:05:37;2.28;;;1.88;;
75993;SDS011;64680;53.800;9.988;2023-07-28T11:10:32;2.10;;;1.35;;
75993;SDS011;64680;53.800;9.988;2023-07-28T11:13:00;4.22;;;1.60;;
75993;SDS011;64680;53.800;9.988;2023-07-28T11:15:26;2.40;;;2.20;;
75993;SDS011;64680;53.800;9.988;2023-07-28T11:17:52;1.40;;;1.30;;
75993;SDS011;64680;53.800;9.988;2023-07-28T11:20:20;2.63;;;1.70;;
75993;SDS011;64680;53.800;9.988;2023-07-28T11:22:46;2.65;;;1.77;;
75993;SDS011;64680;53.800;9.988;2023-07-28T11:25:17;2.55;;;1.95;;
75993;SDS011;64680;53.800;9.988;2023-07-28T11:27:43;2.83;;;1.75;;
75993;SDS011;64680;53.800;9.988;2023-07-28T11:30:11;2.28;;;1.90;;
75993;SDS011;64680;53.800;9.988;2023-07-28T11:32:37;3.55;;;1.60;;
75993;SDS011;64680;53.800;9.988;2023-07-28T11:35:07;2.20;;;1.63;;
75993;SDS011;64680;53.800;9.988;2023-07-28T11:37:34;2.78;;;2.05;;
75993;SDS011;64680;53.800;9.988;2023-07-28T11:40:04;2.00;;;1.70;;
75993;SDS011;64680;53.800;9.988;2023-07-28T11:42:39;1.83;;;1.48;;
75993;SDS011;64680;53.800;9.988;2023-07-28T11:45:12;1.75;;;1.20;;
75993;SDS011;64680;53.800;9.988;2023-07-28T11:47:39;2.88;;;1.30;;
75993;SDS011;64680;53.800;9.988;2023-07-28T11:50:05;2.17;;;1.13;;
75993;SDS011;64680;53.800;9.988;2023-07-28T11:52:31;2.85;;;1.48;;
75993;SDS011;64680;53.800;9.988;2023-07-28T11:54:58;1.50;;;1.20;;
75993;SDS011;64680;53.800;9.988;2023-07-28T11:57:28;1.73;;;1.45;;
75993;SDS011;64680;53.800;9.988;2023-07-28T11:59:58;1.85;;;1.17;;
75993;SDS011;64680;53.800;9.988;2023-07-28T12:02:28;1.52;;;1.27;;
75993;SDS011;64680;53.800;9.988;2023-07-28T12:04:55;1.85;;;1.42;;
75993;SDS011;64680;53.800;9.988;2023-07-28T12:09:56;2.05;;;1.23;;
75993;SDS011;64680;53.800;9.988;2023-07-28T12:12:25;2.33;;;1.20;;
75993;SDS011;64680;53.800;9.988;2023-07-28T12:14:53;1.88;;;1.35;;
75993;SDS011;64680;53.800;9.988;2023-07-28T12:17:29;1.60;;;1.50;;
75993;SDS011;64680;53.800;9.988;2023-07-28T12:20:02;1.70;;;1.45;;
75993;SDS011;64680;53.800;9.988;2023-07-28T12:22:41;2.28;;;1.25;;
75993;SDS011;64680;53.800;9.988;2023-07-28T12:25:07;1.70;;;1.25;;
75993;SDS011;64680;53.800;9.988;2023-07-28T12:27:33;1.10;;;1.00;;
75993;SDS011;64680;53.800;9.988;2023-07-28T12:29:59;1.65;;;1.30;;
75993;SDS011;64680;53.800;9.988;2023-07-28T12:32:26;1.40;;;1.27;;
75993;SDS011;64680;53.800;9.988;2023-07-28T12:34:52;2.85;;;1.02;;
75993;SDS011;64680;53.800;9.988;2023-07-28T12:37:18;1.42;;;1.25;;
75993;SDS011;64680;53.800;9.988;2023-07-28T12:39:44;1.33;;;1.10;;
75993;SDS011;64680;53.800;9.988;2023-07-28T12:42:11;1.75;;;1.20;;
75993;SDS011;64680;53.800;9.988;2023-07-28T12:44:37;1.52;;;0.95;;
75993;SDS011;64680;53.800;9.988;2023-07-28T12:47:04;2.17;;;1.33;;
75993;SDS011;64680;53.800;9.988;2023-07-28T12:49:30;1.52;;;1.40;;
75993;SDS011;64680;53.800;9.988;2023-07-28T12:51:57;1.65;;;1.00;;
75993;SDS011;64680;53.800;9.988;2023-07-28T12:54:24;2.17;;;1.63;;
75993;SDS011;64680;53.800;9.988;2023-07-28T12:56:50;2.55;;;1.60;;
75993;SDS011;64680;53.800;9.988;2023-07-28T12:59:17;1.50;;;1.20;;
75993;SDS011;64680;53.800;9.988;2023-07-28T13:01:42;2.63;;;1.20;;
75993;SDS011;64680;53.800;9.988;2023-07-28T13:04:08;1.80;;;1.50;;
75993;SDS011;64680;53.800;9.988;2023-07-28T13:06:33;2.05;;;1.38;;
75993;SDS011;64680;53.800;9.988;2023-07-28T13:08:59;2.13;;;1.10;;
75993;SDS011;64680;53.800;9.988;2023-07-28T13:11:24;1.45;;;1.10;;
75993;SDS011;64680;53.800;9.988;2023-07-28T13:13:50;1.65;;;1.20;;
75993;SDS011;64680;53.800;9.988;2023-07-28T13:16:16;2.22;;;1.20;;
75993;SDS011;64680;53.800;9.988;2023-07-28T13:18:45;1.30;;;1.10;;
75993;SDS011;64680;53.800;9.988;2023-07-28T13:21:10;1.85;;;1.40;;
75993;SDS011;64680;53.800;9.988;2023-07-28T13:23:36;1.70;;;1.20;;
75993;SDS011;64680;53.800;9.988;2023-07-28T13:26:03;1.45;;;1.17;;
75993;SDS011;64680;53.800;9.988;2023-07-28T13:28:31;1.77;;;1.30;;
75993;SDS011;64680;53.800;9.988;2023-07-28T13:30:57;3.13;;;1.70;;
75993;SDS011;64680;53.800;9.988;2023-07-28T13:33:23;1.30;;;0.98;;
75993;SDS011;64680;53.800;9.988;2023-07-28T13:35:49;1.55;;;1.27;;
75993;SDS011;64680;53.800;9.988;2023-07-28T13:38:15;1.88;;;1.55;;
75993;SDS011;64680;53.800;9.988;2023-07-28T13:40:40;1.50;;;1.10;;
75993;SDS011;64680;53.800;9.988;2023-07-28T13:43:06;1.48;;;0.85;;
75993;SDS011;64680;53.800;9.988;2023-07-28T13:45:32;1.88;;;1.20;;
75993;SDS011;64680;53.800;9.988;2023-07-28T13:47:57;1.73;;;1.30;;
75993;SDS011;64680;53.800;9.988;2023-07-28T13:50:23;2.97;;;1.08;;
75993;SDS011;64680;53.800;9.988;2023-07-28T13:52:49;1.58;;;1.13;;
75993;SDS011;64680;53.800;9.988;2023-07-28T13:55:14;1.40;;;1.10;;
75993;SDS011;64680;53.800;9.988;2023-07-28T13:57:40;1.42;;;1.15;;
75993;SDS011;64680;53.800;9.988;2023-07-28T14:00:07;1.50;;;0.85;;
75993;SDS011;64680;53.800;9.988;2023-07-28T14:02:39;1.20;;;0.90;;
75993;SDS011;64680;53.800;9.988;2023-07-28T14:05:06;3.05;;;1.20;;
75993;SDS011;64680;53.800;9.988;2023-07-28T14:07:32;1.48;;;1.13;;
75993;SDS011;64680;53.800;9.988;2023-07-28T14:10:00;1.27;;;0.98;;
75993;SDS011;64680;53.800;9.988;2023-07-28T14:12:26;1.35;;;0.90;;
75993;SDS011;64680;53.800;9.988;2023-07-28T14:14:51;1.38;;;1.13;;
75993;SDS011;64680;53.800;9.988;2023-07-28T14:17:17;1.33;;;1.20;;
75993;SDS011;64680;53.800;9.988;2023-07-28T14:19:42;1.20;;;1.10;;
75993;SDS011;64680;53.800;9.988;2023-07-28T14:22:08;2.13;;;1.67;;
75993;SDS011;64680;53.800;9.988;2023-07-28T14:24:34;1.95;;;1.08;;
75993;SDS011;64680;53.800;9.988;2023-07-28T14:27:00;1.65;;;1.00;;
75993;SDS011;64680;53.800;9.988;2023-07-28T14:29:25;1.80;;;1.05;;
75993;SDS011;64680;53.800;9.988;2023-07-28T14:31:51;1.23;;;1.00;;
75993;SDS011;64680;53.800;9.988;2023-07-28T14:34:17;1.40;;;1.05;;
75993;SDS011;64680;53.800;9.988;2023-07-28T14:36:42;1.42;;;1.10;;
75993;SDS011;64680;53.800;9.988;2023-07-28T14:39:08;1.95;;;1.20;;
75993;SDS011;64680;53.800;9.988;2023-07-28T14:41:34;1.50;;;1.30;;
75993;SDS011;64680;53.800;9.988;2023-07-28T14:44:00;1.10;;;0.90;;
75993;SDS011;64680;53.800;9.988;2023-07-28T14:46:26;2.28;;;1.48;;
75993;SDS011;64680;53.800;9.988;2023-07-28T14:48:52;1.40;;;1.05;;
75993;SDS011;64680;53.800;9.988;2023-07-28T14:51:18;1.35;;;1.00;;
75993;SDS011;64680;53.800;9.988;2023-07-28T14:53:43;1.27;;;1.05;;